sensor_id;sensor_type;location;lat;lon;timestamp;temperature;humidity
51922;DHT22;37948;53.260;6.394;2022-11-02T00:00:45;13.00;99.90
51922;DHT22;37948;53.260;6.394;2022-11-02T00:03:11;12.90;99.90
51922;DHT22;37948;53.260;6.394;2022-11-02T00:05:37;12.90;99.90
51922;DHT22;37948;53.260;6.394;2022-11-02T00:08:03;12.90;99.90
51922;DHT22;37948;53.260;6.394;2022-11-02T00:10:28;12.90;99.90
51922;DHT22;37948;53.260;6.394;2022-11-02T00:12:54;12.90;99.90
51922;DHT22;37948;53.260;6.394;2022-11-02T00:15:21;12.90;99.90
51922;DHT22;37948;53.260;6.394;2022-11-02T00:17:50;12.90;99.90
51922;DHT22;37948;53.260;6.394;2022-11-02T00:20:18;12.90;99.90
51922;DHT22;37948;53.260;6.394;2022-11-02T00:22:45;12.90;99.90
51922;DHT22;37948;53.260;6.394;2022-11-02T00:25:14;12.90;99.90
51922;DHT22;37948;53.260;6.394;2022-11-02T00:27:42;12.80;99.90
51922;DHT22;37948;53.260;6.394;2022-11-02T00:30:08;12.80;99.90
51922;DHT22;37948;53.260;6.394;2022-11-02T00:32:34;12.70;99.90
51922;DHT22;37948;53.260;6.394;2022-11-02T00:35:00;12.70;99.90
51922;DHT22;37948;53.260;6.394;2022-11-02T00:37:26;12.60;99.90
51922;DHT22;37948;53.260;6.394;2022-11-02T00:39:51;12.50;99.90
51922;DHT22;37948;53.260;6.394;2022-11-02T00:42:17;12.50;99.90
51922;DHT22;37948;53.260;6.394;2022-11-02T00:44:42;12.40;99.90
51922;DHT22;37948;53.260;6.394;2022-11-02T00:47:08;12.40;99.90
51922;DHT22;37948;53.260;6.394;2022-11-02T00:49:36;12.30;99.90
51922;DHT22;37948;53.260;6.394;2022-11-02T00:52:01;12.30;99.90
51922;DHT22;37948;53.260;6.394;2022-11-02T00:54:27;12.30;99.90
51922;DHT22;37948;53.260;6.394;2022-11-02T00:56:53;12.30;99.90
51922;DHT22;37948;53.260;6.394;2022-11-02T00:59:18;12.30;99.90
51922;DHT22;37948;53.260;6.394;2022-11-02T01:01:44;12.30;99.90
51922;DHT22;37948;53.260;6.394;2022-11-02T01:04:12;12.20;99.90
51922;DHT22;37948;53.260;6.394;2022-11-02T01:06:39;12.30;99.90
51922;DHT22;37948;53.260;6.394;2022-11-02T01:09:05;12.20;99.90
51922;DHT22;37948;53.260;6.394;2022-11-02T01:11:30;12.30;99.90
51922;DHT22;37948;53.260;6.394;2022-11-02T01:13:56;12.20;99.90
51922;DHT22;37948;53.260;6.394;2022-11-02T01:16:21;12.20;99.90
51922;DHT22;37948;53.260;6.394;2022-11-02T01:18:51;12.20;99.90
51922;DHT22;37948;53.260;6.394;2022-11-02T01:21:17;12.20;99.90
51922;DHT22;37948;53.260;6.394;2022-11-02T01:23:43;12.20;99.90
51922;DHT22;37948;53.260;6.394;2022-11-02T01:26:09;12.20;99.90
51922;DHT22;37948;53.260;6.394;2022-11-02T01:28:35;12.10;99.90
51922;DHT22;37948;53.260;6.394;2022-11-02T01:31:01;12.10;99.90
51922;DHT22;37948;53.260;6.394;2022-11-02T01:33:27;12.00;99.90
51922;DHT22;37948;53.260;6.394;2022-11-02T01:35:53;12.00;99.90
51922;DHT22;37948;53.260;6.394;2022-11-02T01:38:19;12.00;99.90
51922;DHT22;37948;53.260;6.394;2022-11-02T01:40:45;11.90;99.90
51922;DHT22;37948;53.260;6.394;2022-11-02T01:43:25;11.90;99.90
51922;DHT22;37948;53.260;6.394;2022-11-02T01:48:42;11.80;99.90
51922;DHT22;37948;53.260;6.394;2022-11-02T01:51:11;11.80;99.90
51922;DHT22;37948;53.260;6.394;2022-11-02T01:53:43;11.80;99.90
51922;DHT22;37948;53.260;6.394;2022-11-02T01:56:11;11.80;99.90
51922;DHT22;37948;53.260;6.394;2022-11-02T01:58:38;11.80;99.90
51922;DHT22;37948;53.260;6.394;2022-11-02T02:01:04;11.80;99.90
51922;DHT22;37948;53.260;6.394;2022-11-02T02:03:31;11.80;99.90
51922;DHT22;37948;53.260;6.394;2022-11-02T02:06:05;11.80;99.90
51922;DHT22;37948;53.260;6.394;2022-11-02T02:08:35;11.80;99.90
51922;DHT22;37948;53.260;6.394;2022-11-02T02:11:01;11.70;99.90
51922;DHT22;37948;53.260;6.394;2022-11-02T02:13:27;11.70;99.90
51922;DHT22;37948;53.260;6.394;2022-11-02T02:16:17;11.80;99.90
51922;DHT22;37948;53.260;6.394;2022-11-02T02:18:49;11.70;99.90
51922;DHT22;37948;53.260;6.394;2022-11-02T02:26:47;11.60;99.90
51922;DHT22;37948;53.260;6.394;2022-11-02T02:29:36;11.50;99.90
51922;DHT22;37948;53.260;6.394;2022-11-02T02:32:14;11.50;99.90
51922;DHT22;37948;53.260;6.394;2022-11-02T02:34:54;11.50;99.90
51922;DHT22;37948;53.260;6.394;2022-11-02T02:37:33;11.50;99.90
51922;DHT22;37948;53.260;6.394;2022-11-02T02:42:49;11.50;99.90
51922;DHT22;37948;53.260;6.394;2022-11-02T02:48:20;11.50;99.90
51922;DHT22;37948;53.260;6.394;2022-11-02T02:50:49;11.50;99.90
51922;DHT22;37948;53.260;6.394;2022-11-02T02:53:19;11.50;99.90
51922;DHT22;37948;53.260;6.394;2022-11-02T02:55:47;11.60;99.90
51922;DHT22;37948;53.260;6.394;2022-11-02T02:58:23;11.60;99.90
51922;DHT22;37948;53.260;6.394;2022-11-02T03:00:50;11.50;99.90
51922;DHT22;37948;53.260;6.394;2022-11-02T03:03:20;11.60;99.90
51922;DHT22;37948;53.260;6.394;2022-11-02T03:08:35;11.60;99.90
51922;DHT22;37948;53.260;6.394;2022-11-02T03:11:13;11.60;99.90
51922;DHT22;37948;53.260;6.394;2022-11-02T03:14:06;11.60;99.90
51922;DHT22;37948;53.260;6.394;2022-11-02T03:22:15;11.40;99.90
51922;DHT22;37948;53.260;6.394;2022-11-02T03:24:49;11.40;99.90
51922;DHT22;37948;53.260;6.394;2022-11-02T03:27:24;11.40;99.90
51922;DHT22;37948;53.260;6.394;2022-11-02T03:29:55;11.30;99.90
51922;DHT22;37948;53.260;6.394;2022-11-02T03:34:57;11.30;99.90
51922;DHT22;37948;53.260;6.394;2022-11-02T03:37:36;11.30;99.90
51922;DHT22;37948;53.260;6.394;2022-11-02T03:40:16;11.30;99.90
51922;DHT22;37948;53.260;6.394;2022-11-02T03:42:44;11.20;99.90
51922;DHT22;37948;53.260;6.394;2022-11-02T03:45:42;11.20;99.90
51922;DHT22;37948;53.260;6.394;2022-11-02T03:48:10;11.20;99.90
51922;DHT22;37948;53.260;6.394;2022-11-02T03:50:41;11.20;99.90
51922;DHT22;37948;53.260;6.394;2022-11-02T03:53:21;11.20;99.90
51922;DHT22;37948;53.260;6.394;2022-11-02T03:55:56;11.10;99.90
51922;DHT22;37948;53.260;6.394;2022-11-02T03:58:24;11.10;99.90
51922;DHT22;37948;53.260;6.394;2022-11-02T04:00:53;11.10;99.90
51922;DHT22;37948;53.260;6.394;2022-11-02T04:03:21;11.10;99.90
51922;DHT22;37948;53.260;6.394;2022-11-02T04:05:48;11.10;99.90
51922;DHT22;37948;53.260;6.394;2022-11-02T04:08:17;11.10;99.90
51922;DHT22;37948;53.260;6.394;2022-11-02T04:10:48;11.10;99.90
51922;DHT22;37948;53.260;6.394;2022-11-02T04:13:33;11.10;99.90
51922;DHT22;37948;53.260;6.394;2022-11-02T04:16:18;11.10;99.90
51922;DHT22;37948;53.260;6.394;2022-11-02T04:18:43;11.10;99.90
51922;DHT22;37948;53.260;6.394;2022-11-02T04:21:28;11.10;99.90
51922;DHT22;37948;53.260;6.394;2022-11-02T04:23:54;11.10;99.90
51922;DHT22;37948;53.260;6.394;2022-11-02T04:26:38;11.10;99.90
51922;DHT22;37948;53.260;6.394;2022-11-02T04:29:04;11.10;99.90
51922;DHT22;37948;53.260;6.394;2022-11-02T04:31:29;11.10;99.90
51922;DHT22;37948;53.260;6.394;2022-11-02T04:33:55;11.10;99.90
51922;DHT22;37948;53.260;6.394;2022-11-02T04:36:22;11.10;99.90
51922;DHT22;37948;53.260;6.394;2022-11-02T04:38:48;11.10;99.90
51922;DHT22;37948;53.260;6.394;2022-11-02T04:41:16;11.20;99.90
51922;DHT22;37948;53.260;6.394;2022-11-02T04:44:00;11.10;99.90
51922;DHT22;37948;53.260;6.394;2022-11-02T04:46:28;11.10;99.90
51922;DHT22;37948;53.260;6.394;2022-11-02T04:48:55;11.10;99.90
51922;DHT22;37948;53.260;6.394;2022-11-02T04:51:22;11.00;99.90
51922;DHT22;37948;53.260;6.394;2022-11-02T04:53:52;11.00;99.90
51922;DHT22;37948;53.260;6.394;2022-11-02T04:56:18;11.00;99.90
51922;DHT22;37948;53.260;6.394;2022-11-02T04:58:51;11.00;99.90
51922;DHT22;37948;53.260;6.394;2022-11-02T05:01:18;11.00;99.90
51922;DHT22;37948;53.260;6.394;2022-11-02T05:03:48;11.00;99.90
51922;DHT22;37948;53.260;6.394;2022-11-02T05:06:14;11.00;99.90
51922;DHT22;37948;53.260;6.394;2022-11-02T05:08:39;10.90;99.90
51922;DHT22;37948;53.260;6.394;2022-11-02T05:11:05;11.00;99.90
51922;DHT22;37948;53.260;6.394;2022-11-02T05:13:31;10.90;99.90
51922;DHT22;37948;53.260;6.394;2022-11-02T05:15:58;10.90;99.90
51922;DHT22;37948;53.260;6.394;2022-11-02T05:18:24;10.90;99.90
51922;DHT22;37948;53.260;6.394;2022-11-02T05:20:52;10.90;99.90
51922;DHT22;37948;53.260;6.394;2022-11-02T05:23:19;10.90;99.90
51922;DHT22;37948;53.260;6.394;2022-11-02T05:25:59;11.00;99.90
51922;DHT22;37948;53.260;6.394;2022-11-02T05:28:26;10.90;99.90
51922;DHT22;37948;53.260;6.394;2022-11-02T05:30:53;10.90;99.90
51922;DHT22;37948;53.260;6.394;2022-11-02T05:33:19;10.90;99.90
51922;DHT22;37948;53.260;6.394;2022-11-02T05:35:45;10.90;99.90
51922;DHT22;37948;53.260;6.394;2022-11-02T05:38:11;10.90;99.90
51922;DHT22;37948;53.260;6.394;2022-11-02T05:40:36;10.90;99.90
51922;DHT22;37948;53.260;6.394;2022-11-02T05:43:05;10.90;99.90
51922;DHT22;37948;53.260;6.394;2022-11-02T05:45:31;10.90;99.90
51922;DHT22;37948;53.260;6.394;2022-11-02T05:48:01;10.90;99.90
51922;DHT22;37948;53.260;6.394;2022-11-02T05:50:27;10.90;99.90
51922;DHT22;37948;53.260;6.394;2022-11-02T05:52:53;10.90;99.90
51922;DHT22;37948;53.260;6.394;2022-11-02T05:55:19;10.90;99.90
51922;DHT22;37948;53.260;6.394;2022-11-02T05:57:52;10.90;99.90
51922;DHT22;37948;53.260;6.394;2022-11-02T06:00:19;11.00;99.90
51922;DHT22;37948;53.260;6.394;2022-11-02T06:02:45;11.00;99.90
51922;DHT22;37948;53.260;6.394;2022-11-02T06:05:10;11.00;99.90
51922;DHT22;37948;53.260;6.394;2022-11-02T06:07:36;11.00;99.90
51922;DHT22;37948;53.260;6.394;2022-11-02T06:10:02;11.00;99.90
51922;DHT22;37948;53.260;6.394;2022-11-02T06:12:27;11.00;99.90
51922;DHT22;37948;53.260;6.394;2022-11-02T06:14:53;11.00;99.90
51922;DHT22;37948;53.260;6.394;2022-11-02T06:17:18;11.00;99.90
51922;DHT22;37948;53.260;6.394;2022-11-02T06:19:44;11.10;99.90
51922;DHT22;37948;53.260;6.394;2022-11-02T06:22:09;11.10;99.90
51922;DHT22;37948;53.260;6.394;2022-11-02T06:24:35;11.10;99.90
51922;DHT22;37948;53.260;6.394;2022-11-02T06:27:00;11.10;99.90
51922;DHT22;37948;53.260;6.394;2022-11-02T06:29:26;11.00;99.90
51922;DHT22;37948;53.260;6.394;2022-11-02T06:31:52;11.00;99.90
51922;DHT22;37948;53.260;6.394;2022-11-02T06:34:17;11.00;99.90
51922;DHT22;37948;53.260;6.394;2022-11-02T06:36:43;11.00;99.90
51922;DHT22;37948;53.260;6.394;2022-11-02T06:39:08;11.00;99.90
51922;DHT22;37948;53.260;6.394;2022-11-02T06:41:34;11.00;99.90
51922;DHT22;37948;53.260;6.394;2022-11-02T06:43:59;11.00;99.90
51922;DHT22;37948;53.260;6.394;2022-11-02T06:46:25;11.00;99.90
51922;DHT22;37948;53.260;6.394;2022-11-02T06:48:50;11.00;99.90
51922;DHT22;37948;53.260;6.394;2022-11-02T06:51:16;11.00;99.90
51922;DHT22;37948;53.260;6.394;2022-11-02T06:53:42;11.00;99.90
51922;DHT22;37948;53.260;6.394;2022-11-02T06:56:08;10.90;99.90
51922;DHT22;37948;53.260;6.394;2022-11-02T06:58:34;10.90;99.90
51922;DHT22;37948;53.260;6.394;2022-11-02T07:01:02;10.90;99.90
51922;DHT22;37948;53.260;6.394;2022-11-02T07:03:29;10.90;99.90
51922;DHT22;37948;53.260;6.394;2022-11-02T07:05:54;10.90;99.90
51922;DHT22;37948;53.260;6.394;2022-11-02T07:08:21;10.90;99.90
51922;DHT22;37948;53.260;6.394;2022-11-02T07:10:47;10.90;99.90
51922;DHT22;37948;53.260;6.394;2022-11-02T07:13:13;10.90;99.90
51922;DHT22;37948;53.260;6.394;2022-11-02T07:15:38;10.90;99.90
51922;DHT22;37948;53.260;6.394;2022-11-02T07:18:04;10.90;99.90
51922;DHT22;37948;53.260;6.394;2022-11-02T07:20:31;10.90;99.90
51922;DHT22;37948;53.260;6.394;2022-11-02T07:22:58;10.90;99.90
51922;DHT22;37948;53.260;6.394;2022-11-02T07:25:25;10.90;99.90
51922;DHT22;37948;53.260;6.394;2022-11-02T07:27:52;10.80;99.90
51922;DHT22;37948;53.260;6.394;2022-11-02T07:30:18;10.80;99.90
51922;DHT22;37948;53.260;6.394;2022-11-02T07:32:44;10.80;99.90
51922;DHT22;37948;53.260;6.394;2022-11-02T07:35:11;10.80;99.90
51922;DHT22;37948;53.260;6.394;2022-11-02T07:37:37;10.70;99.90
51922;DHT22;37948;53.260;6.394;2022-11-02T07:40:05;10.80;99.90
51922;DHT22;37948;53.260;6.394;2022-11-02T07:42:31;10.70;99.90
51922;DHT22;37948;53.260;6.394;2022-11-02T07:44:56;10.70;99.90
51922;DHT22;37948;53.260;6.394;2022-11-02T07:47:22;10.70;99.90
51922;DHT22;37948;53.260;6.394;2022-11-02T07:49:48;10.70;99.90
51922;DHT22;37948;53.260;6.394;2022-11-02T07:52:13;10.70;99.90
51922;DHT22;37948;53.260;6.394;2022-11-02T07:54:39;10.70;99.90
51922;DHT22;37948;53.260;6.394;2022-11-02T07:57:04;10.70;99.90
51922;DHT22;37948;53.260;6.394;2022-11-02T07:59:30;10.80;99.90
51922;DHT22;37948;53.260;6.394;2022-11-02T08:01:55;10.90;99.90
51922;DHT22;37948;53.260;6.394;2022-11-02T08:04:21;10.90;99.90
51922;DHT22;37948;53.260;6.394;2022-11-02T08:06:47;11.00;99.90
51922;DHT22;37948;53.260;6.394;2022-11-02T08:09:12;11.20;99.90
51922;DHT22;37948;53.260;6.394;2022-11-02T08:11:40;11.20;99.90
51922;DHT22;37948;53.260;6.394;2022-11-02T08:14:05;11.30;99.90
51922;DHT22;37948;53.260;6.394;2022-11-02T08:16:31;11.30;99.90
51922;DHT22;37948;53.260;6.394;2022-11-02T08:18:56;11.30;99.90
51922;DHT22;37948;53.260;6.394;2022-11-02T08:21:24;11.30;99.90
51922;DHT22;37948;53.260;6.394;2022-11-02T08:23:49;11.30;99.90
51922;DHT22;37948;53.260;6.394;2022-11-02T08:26:15;11.30;99.90
51922;DHT22;37948;53.260;6.394;2022-11-02T08:28:40;11.20;99.90
51922;DHT22;37948;53.260;6.394;2022-11-02T08:31:13;11.10;99.90
51922;DHT22;37948;53.260;6.394;2022-11-02T08:33:39;11.20;99.90
51922;DHT22;37948;53.260;6.394;2022-11-02T08:36:05;11.10;99.90
51922;DHT22;37948;53.260;6.394;2022-11-02T08:38:31;11.10;99.90
51922;DHT22;37948;53.260;6.394;2022-11-02T08:40:56;11.20;99.90
51922;DHT22;37948;53.260;6.394;2022-11-02T08:43:22;11.20;99.90
51922;DHT22;37948;53.260;6.394;2022-11-02T08:45:48;11.30;99.90
51922;DHT22;37948;53.260;6.394;2022-11-02T08:48:13;11.40;99.90
51922;DHT22;37948;53.260;6.394;2022-11-02T08:50:39;11.50;99.90
51922;DHT22;37948;53.260;6.394;2022-11-02T08:53:05;11.50;99.90
51922;DHT22;37948;53.260;6.394;2022-11-02T08:55:31;11.60;99.90
51922;DHT22;37948;53.260;6.394;2022-11-02T08:57:58;11.60;99.90
51922;DHT22;37948;53.260;6.394;2022-11-02T09:00:27;11.70;99.90
51922;DHT22;37948;53.260;6.394;2022-11-02T09:03:06;11.70;99.90
51922;DHT22;37948;53.260;6.394;2022-11-02T09:05:34;11.80;99.90
51922;DHT22;37948;53.260;6.394;2022-11-02T09:08:02;11.80;99.90
51922;DHT22;37948;53.260;6.394;2022-11-02T09:10:30;11.80;99.90
51922;DHT22;37948;53.260;6.394;2022-11-02T09:12:58;11.80;99.90
51922;DHT22;37948;53.260;6.394;2022-11-02T09:15:24;11.90;99.90
51922;DHT22;37948;53.260;6.394;2022-11-02T09:17:50;11.90;99.90
51922;DHT22;37948;53.260;6.394;2022-11-02T09:20:16;12.00;99.90
51922;DHT22;37948;53.260;6.394;2022-11-02T09:22:42;12.10;99.90
51922;DHT22;37948;53.260;6.394;2022-11-02T09:25:08;12.20;99.90
51922;DHT22;37948;53.260;6.394;2022-11-02T09:27:34;12.20;99.90
51922;DHT22;37948;53.260;6.394;2022-11-02T09:30:00;12.30;99.90
51922;DHT22;37948;53.260;6.394;2022-11-02T09:32:25;12.30;99.90
51922;DHT22;37948;53.260;6.394;2022-11-02T09:34:51;12.30;99.90
51922;DHT22;37948;53.260;6.394;2022-11-02T09:37:17;12.30;99.90
51922;DHT22;37948;53.260;6.394;2022-11-02T09:39:43;12.30;99.90
51922;DHT22;37948;53.260;6.394;2022-11-02T09:42:17;12.30;99.90
51922;DHT22;37948;53.260;6.394;2022-11-02T09:45:01;12.30;99.90
51922;DHT22;37948;53.260;6.394;2022-11-02T09:47:28;12.40;99.90
51922;DHT22;37948;53.260;6.394;2022-11-02T09:49:56;12.40;99.90
51922;DHT22;37948;53.260;6.394;2022-11-02T09:52:31;12.40;99.90
51922;DHT22;37948;53.260;6.394;2022-11-02T09:54:58;12.50;99.90
51922;DHT22;37948;53.260;6.394;2022-11-02T09:57:29;12.60;99.90
51922;DHT22;37948;53.260;6.394;2022-11-02T09:59:56;12.60;99.90
51922;DHT22;37948;53.260;6.394;2022-11-02T10:08:08;12.60;99.90
51922;DHT22;37948;53.260;6.394;2022-11-02T10:13:41;12.50;99.90
51922;DHT22;37948;53.260;6.394;2022-11-02T10:16:24;12.50;99.90
51922;DHT22;37948;53.260;6.394;2022-11-02T10:18:53;12.60;99.90
51922;DHT22;37948;53.260;6.394;2022-11-02T10:21:32;12.70;99.90
51922;DHT22;37948;53.260;6.394;2022-11-02T10:24:03;12.70;99.90
51922;DHT22;37948;53.260;6.394;2022-11-02T10:26:36;12.80;99.90
51922;DHT22;37948;53.260;6.394;2022-11-02T10:29:15;12.80;99.90
51922;DHT22;37948;53.260;6.394;2022-11-02T10:31:41;13.00;99.90
51922;DHT22;37948;53.260;6.394;2022-11-02T10:34:26;13.00;99.90
51922;DHT22;37948;53.260;6.394;2022-11-02T10:51:11;13.00;99.90
51922;DHT22;37948;53.260;6.394;2022-11-02T10:53:45;13.00;99.90
51922;DHT22;37948;53.260;6.394;2022-11-02T10:56:16;13.00;99.90
51922;DHT22;37948;53.260;6.394;2022-11-02T11:01:26;12.90;99.90
51922;DHT22;37948;53.260;6.394;2022-11-02T11:06:22;12.90;99.90
51922;DHT22;37948;53.260;6.394;2022-11-02T11:08:49;12.90;99.90
51922;DHT22;37948;53.260;6.394;2022-11-02T11:11:29;12.90;99.90
51922;DHT22;37948;53.260;6.394;2022-11-02T11:14:04;12.80;99.90
51922;DHT22;37948;53.260;6.394;2022-11-02T11:16:42;12.70;99.90
51922;DHT22;37948;53.260;6.394;2022-11-02T11:19:26;12.60;99.90
51922;DHT22;37948;53.260;6.394;2022-11-02T11:21:54;12.50;99.90
51922;DHT22;37948;53.260;6.394;2022-11-02T11:27:19;12.50;99.90
51922;DHT22;37948;53.260;6.394;2022-11-02T11:29:54;12.50;99.90
51922;DHT22;37948;53.260;6.394;2022-11-02T11:32:27;12.50;99.90
51922;DHT22;37948;53.260;6.394;2022-11-02T11:35:04;12.50;99.90
51922;DHT22;37948;53.260;6.394;2022-11-02T11:37:31;12.40;99.90
51922;DHT22;37948;53.260;6.394;2022-11-02T11:40:05;12.30;99.90
51922;DHT22;37948;53.260;6.394;2022-11-02T11:42:41;12.30;99.90
51922;DHT22;37948;53.260;6.394;2022-11-02T11:45:19;12.20;99.90
51922;DHT22;37948;53.260;6.394;2022-11-02T11:50:46;12.20;99.90
51922;DHT22;37948;53.260;6.394;2022-11-02T11:55:46;12.30;99.90
51922;DHT22;37948;53.260;6.394;2022-11-02T11:58:17;12.50;99.90
51922;DHT22;37948;53.260;6.394;2022-11-02T12:00:44;12.70;99.90
51922;DHT22;37948;53.260;6.394;2022-11-02T12:03:11;12.80;99.90
51922;DHT22;37948;53.260;6.394;2022-11-02T12:05:47;12.90;99.90
51922;DHT22;37948;53.260;6.394;2022-11-02T12:08:48;13.00;99.90
51922;DHT22;37948;53.260;6.394;2022-11-02T12:11:22;13.10;99.90
51922;DHT22;37948;53.260;6.394;2022-11-02T12:13:54;13.20;99.90
51922;DHT22;37948;53.260;6.394;2022-11-02T12:16:50;13.20;99.90
51922;DHT22;37948;53.260;6.394;2022-11-02T12:20:00;13.10;99.90
51922;DHT22;37948;53.260;6.394;2022-11-02T12:27:53;13.20;99.90
51922;DHT22;37948;53.260;6.394;2022-11-02T12:30:39;13.20;99.90
51922;DHT22;37948;53.260;6.394;2022-11-02T12:33:21;13.10;99.90
51922;DHT22;37948;53.260;6.394;2022-11-02T12:39:06;13.20;99.90
51922;DHT22;37948;53.260;6.394;2022-11-02T12:44:37;13.20;99.90
51922;DHT22;37948;53.260;6.394;2022-11-02T12:47:21;13.20;99.90
51922;DHT22;37948;53.260;6.394;2022-11-02T12:50:04;13.20;99.90
51922;DHT22;37948;53.260;6.394;2022-11-02T12:55:24;13.30;99.90
51922;DHT22;37948;53.260;6.394;2022-11-02T12:57:59;13.30;99.90
51922;DHT22;37948;53.260;6.394;2022-11-02T13:00:26;13.30;99.90
51922;DHT22;37948;53.260;6.394;2022-11-02T13:03:24;13.20;99.90
51922;DHT22;37948;53.260;6.394;2022-11-02T13:05:55;13.10;99.90
51922;DHT22;37948;53.260;6.394;2022-11-02T13:08:52;13.00;99.90
51922;DHT22;37948;53.260;6.394;2022-11-02T13:11:24;12.90;99.90
51922;DHT22;37948;53.260;6.394;2022-11-02T13:13:55;12.90;99.90
51922;DHT22;37948;53.260;6.394;2022-11-02T13:16:48;12.90;99.90
51922;DHT22;37948;53.260;6.394;2022-11-02T13:19:16;12.90;99.90
51922;DHT22;37948;53.260;6.394;2022-11-02T13:21:48;13.10;99.90
51922;DHT22;37948;53.260;6.394;2022-11-02T13:24:18;13.20;99.90
51922;DHT22;37948;53.260;6.394;2022-11-02T13:26:47;13.20;99.90
51922;DHT22;37948;53.260;6.394;2022-11-02T13:29:36;13.20;99.90
51922;DHT22;37948;53.260;6.394;2022-11-02T13:34:54;13.20;99.90
51922;DHT22;37948;53.260;6.394;2022-11-02T13:37:30;13.20;99.90
51922;DHT22;37948;53.260;6.394;2022-11-02T13:40:02;13.30;99.90
51922;DHT22;37948;53.260;6.394;2022-11-02T13:50:30;13.50;99.90
51922;DHT22;37948;53.260;6.394;2022-11-02T13:53:00;13.50;99.90
51922;DHT22;37948;53.260;6.394;2022-11-02T13:55:41;13.50;99.90
51922;DHT22;37948;53.260;6.394;2022-11-02T13:58:22;13.50;99.90
51922;DHT22;37948;53.260;6.394;2022-11-02T14:00:50;13.50;99.90
51922;DHT22;37948;53.260;6.394;2022-11-02T14:03:24;13.50;99.90
51922;DHT22;37948;53.260;6.394;2022-11-02T14:06:03;13.50;99.90
51922;DHT22;37948;53.260;6.394;2022-11-02T14:08:34;13.40;99.90
51922;DHT22;37948;53.260;6.394;2022-11-02T14:21:44;13.40;99.90
51922;DHT22;37948;53.260;6.394;2022-11-02T14:26:59;13.40;99.90
51922;DHT22;37948;53.260;6.394;2022-11-02T14:34:56;13.30;99.90
51922;DHT22;37948;53.260;6.394;2022-11-02T14:48:13;13.30;99.90
51922;DHT22;37948;53.260;6.394;2022-11-02T14:50:54;13.20;99.90
51922;DHT22;37948;53.260;6.394;2022-11-02T14:53:26;13.20;99.90
51922;DHT22;37948;53.260;6.394;2022-11-02T14:55:54;13.10;99.90
51922;DHT22;37948;53.260;6.394;2022-11-02T14:58:23;13.10;99.90
51922;DHT22;37948;53.260;6.394;2022-11-02T15:14:50;12.90;99.90
51922;DHT22;37948;53.260;6.394;2022-11-02T15:19:49;12.80;99.90
51922;DHT22;37948;53.260;6.394;2022-11-02T15:22:37;12.80;99.90
51922;DHT22;37948;53.260;6.394;2022-11-02T15:25:12;12.70;99.90
51922;DHT22;37948;53.260;6.394;2022-11-02T15:27:42;12.70;99.90
51922;DHT22;37948;53.260;6.394;2022-11-02T15:30:18;12.60;99.90
51922;DHT22;37948;53.260;6.394;2022-11-02T15:32:53;12.60;99.90
51922;DHT22;37948;53.260;6.394;2022-11-02T15:35:22;12.60;99.90
51922;DHT22;37948;53.260;6.394;2022-11-02T15:37:55;12.60;99.90
51922;DHT22;37948;53.260;6.394;2022-11-02T15:40:26;12.60;99.90
51922;DHT22;37948;53.260;6.394;2022-11-02T15:43:06;12.60;99.90
51922;DHT22;37948;53.260;6.394;2022-11-02T15:45:56;12.50;99.90
51922;DHT22;37948;53.260;6.394;2022-11-02T15:48:50;12.50;99.90
51922;DHT22;37948;53.260;6.394;2022-11-02T15:56:31;12.40;99.90
51922;DHT22;37948;53.260;6.394;2022-11-02T16:01:38;12.50;99.90
51922;DHT22;37948;53.260;6.394;2022-11-02T16:04:05;12.40;99.90
51922;DHT22;37948;53.260;6.394;2022-11-02T16:06:35;12.40;99.90
51922;DHT22;37948;53.260;6.394;2022-11-02T16:14:39;12.30;99.90
51922;DHT22;37948;53.260;6.394;2022-11-02T16:17:05;12.30;99.90
51922;DHT22;37948;53.260;6.394;2022-11-02T16:19:42;12.30;99.90
51922;DHT22;37948;53.260;6.394;2022-11-02T16:22:08;12.30;99.90
51922;DHT22;37948;53.260;6.394;2022-11-02T16:24:33;12.30;99.90
51922;DHT22;37948;53.260;6.394;2022-11-02T16:26:59;12.30;99.90
51922;DHT22;37948;53.260;6.394;2022-11-02T16:29:29;12.20;99.90
51922;DHT22;37948;53.260;6.394;2022-11-02T16:31:55;12.20;99.90
51922;DHT22;37948;53.260;6.394;2022-11-02T16:34:28;12.30;99.90
51922;DHT22;37948;53.260;6.394;2022-11-02T16:36:55;12.20;99.90
51922;DHT22;37948;53.260;6.394;2022-11-02T16:39:27;12.20;99.90
51922;DHT22;37948;53.260;6.394;2022-11-02T16:41:56;12.20;99.90
51922;DHT22;37948;53.260;6.394;2022-11-02T16:44:28;12.10;99.90
51922;DHT22;37948;53.260;6.394;2022-11-02T16:52:20;12.10;99.90
51922;DHT22;37948;53.260;6.394;2022-11-02T16:54:46;12.10;99.90
51922;DHT22;37948;53.260;6.394;2022-11-02T16:57:20;12.10;99.90
51922;DHT22;37948;53.260;6.394;2022-11-02T17:00:10;12.10;99.90
51922;DHT22;37948;53.260;6.394;2022-11-02T17:02:41;12.10;99.90
51922;DHT22;37948;53.260;6.394;2022-11-02T17:05:18;12.10;99.90
51922;DHT22;37948;53.260;6.394;2022-11-02T17:08:05;12.10;99.90
51922;DHT22;37948;53.260;6.394;2022-11-02T17:10:36;12.00;99.90
51922;DHT22;37948;53.260;6.394;2022-11-02T17:13:13;12.10;99.90
51922;DHT22;37948;53.260;6.394;2022-11-02T17:15:46;12.00;99.90
51922;DHT22;37948;53.260;6.394;2022-11-02T17:18:22;12.00;99.90
51922;DHT22;37948;53.260;6.394;2022-11-02T17:26:23;12.00;99.90
51922;DHT22;37948;53.260;6.394;2022-11-02T17:28:52;12.00;99.90
51922;DHT22;37948;53.260;6.394;2022-11-02T17:31:26;12.00;99.90
51922;DHT22;37948;53.260;6.394;2022-11-02T17:33:52;12.00;99.90
51922;DHT22;37948;53.260;6.394;2022-11-02T17:36:18;12.00;99.90
51922;DHT22;37948;53.260;6.394;2022-11-02T17:38:44;11.90;99.90
51922;DHT22;37948;53.260;6.394;2022-11-02T17:41:15;11.90;99.90
51922;DHT22;37948;53.260;6.394;2022-11-02T17:44:00;11.90;99.90
51922;DHT22;37948;53.260;6.394;2022-11-02T17:46:26;11.90;99.90
51922;DHT22;37948;53.260;6.394;2022-11-02T17:48:51;11.90;99.90
51922;DHT22;37948;53.260;6.394;2022-11-02T17:51:19;11.80;99.90
51922;DHT22;37948;53.260;6.394;2022-11-02T17:53:45;11.90;99.90
51922;DHT22;37948;53.260;6.394;2022-11-02T17:56:11;11.80;99.90
51922;DHT22;37948;53.260;6.394;2022-11-02T17:58:37;11.80;99.90
51922;DHT22;37948;53.260;6.394;2022-11-02T18:01:03;11.80;99.90
51922;DHT22;37948;53.260;6.394;2022-11-02T18:03:29;11.80;99.90
51922;DHT22;37948;53.260;6.394;2022-11-02T18:05:55;11.70;99.90
51922;DHT22;37948;53.260;6.394;2022-11-02T18:08:21;11.70;99.90
51922;DHT22;37948;53.260;6.394;2022-11-02T18:10:50;11.70;99.90
51922;DHT22;37948;53.260;6.394;2022-11-02T18:13:18;11.70;99.90
51922;DHT22;37948;53.260;6.394;2022-11-02T18:15:44;11.70;99.90
51922;DHT22;37948;53.260;6.394;2022-11-02T18:18:10;11.70;99.90
51922;DHT22;37948;53.260;6.394;2022-11-02T18:20:38;11.70;99.90
51922;DHT22;37948;53.260;6.394;2022-11-02T18:23:04;11.70;99.90
51922;DHT22;37948;53.260;6.394;2022-11-02T18:25:30;11.70;99.90